createdAt,value
2019-05-07T00:01:20.097Z,57.47
2019-05-07T00:03:52.897Z,57.38
2019-05-07T00:06:24.566Z,57.26
2019-05-07T00:08:55.908Z,57.28
2019-05-07T00:11:27.217Z,58.00
2019-05-07T00:13:58.804Z,58.30
2019-05-07T00:16:32.527Z,57.05
2019-05-07T00:19:04.451Z,58.35
2019-05-07T00:21:36.162Z,57.51
2019-05-07T00:24:10.193Z,58.19
2019-05-07T00:26:43.010Z,58.48
2019-05-07T00:29:16.509Z,57.99
2019-05-07T00:31:47.968Z,57.74
2019-05-07T00:34:21.985Z,59.10
2019-05-07T00:37:06.864Z,58.85
2019-05-07T00:39:47.897Z,58.38
2019-05-07T00:42:22.103Z,58.17
2019-05-07T00:45:13.315Z,57.90
2019-05-07T00:47:32.970Z,58.29
2019-05-07T00:50:08.152Z,57.41
2019-05-07T00:52:39.472Z,59.18
2019-05-07T00:55:12.028Z,59.25
2019-05-07T00:57:43.295Z,58.82
2019-05-07T01:00:14.648Z,58.86
2019-05-07T01:02:45.884Z,59.17
2019-05-07T01:05:18.246Z,58.86
2019-05-07T01:07:52.759Z,58.15
2019-05-07T01:10:23.678Z,59.02
2019-05-07T01:12:55.170Z,62.33
2019-05-07T01:15:31.039Z,62.81
2019-05-07T01:17:59.540Z,64.08
2019-05-07T01:20:32.917Z,64.25
2019-05-07T01:23:03.941Z,64.24
2019-05-07T01:25:35.398Z,61.57
2019-05-07T01:28:06.717Z,64.47
2019-05-07T01:30:38.137Z,65.38
2019-05-07T01:33:12.313Z,64.17
2019-05-07T01:35:45.318Z,62.70
2019-05-07T01:38:18.385Z,62.43
2019-05-07T01:40:51.982Z,61.68
2019-05-07T01:43:22.924Z,61.57
2019-05-07T01:45:55.320Z,61.44
2019-05-07T01:48:26.658Z,61.16
2019-05-07T01:50:57.881Z,61.43
2019-05-07T01:53:29.060Z,61.29
2019-05-07T01:56:00.493Z,61.72
2019-05-07T01:58:33.077Z,61.41
2019-05-07T02:01:04.972Z,61.14
2019-05-07T02:03:38.151Z,61.20
2019-05-07T02:06:14.244Z,61.28
2019-05-07T02:08:59.391Z,61.19
2019-05-07T02:11:34.885Z,61.14
2019-05-07T02:14:06.214Z,62.50
2019-05-07T02:16:37.608Z,62.51
2019-05-07T02:19:08.938Z,62.43
2019-05-07T02:21:42.171Z,62.57
2019-05-07T02:24:13.261Z,62.83
2019-05-07T02:26:44.494Z,62.72
2019-05-07T02:29:15.777Z,62.69
2019-05-07T02:31:47.064Z,62.92
2019-05-07T02:34:23.363Z,62.82
2019-05-07T02:36:54.065Z,62.77
2019-05-07T02:39:44.281Z,62.31
2019-05-07T02:42:16.069Z,62.54
2019-05-07T02:45:05.478Z,62.60
2019-05-07T02:47:36.924Z,62.49
2019-05-07T02:50:15.977Z,62.68
2019-05-07T02:53:06.264Z,63.52
2019-05-07T02:55:43.492Z,63.32
2019-05-07T02:58:15.465Z,64.04
2019-05-07T03:00:46.947Z,64.75
2019-05-07T03:03:18.298Z,64.73
2019-05-07T03:05:49.853Z,64.67
2019-05-07T03:08:26.562Z,64.52
2019-05-07T03:10:54.371Z,65.95
2019-05-07T03:13:25.810Z,64.26
2019-05-07T03:15:57.188Z,63.71
2019-05-07T03:18:28.543Z,63.70
2019-05-07T03:21:03.432Z,64.06
2019-05-07T03:23:37.239Z,63.70
2019-05-07T03:26:13.944Z,63.72
2019-05-07T03:28:53.556Z,63.36
2019-05-07T03:31:26.566Z,63.52
2019-05-07T03:34:16.894Z,63.18
2019-05-07T03:36:55.797Z,62.79
2019-05-07T03:39:23.980Z,62.30
2019-05-07T03:41:55.684Z,61.96
2019-05-07T03:44:44.497Z,61.90
2019-05-07T03:47:23.528Z,61.98
2019-05-07T03:49:54.301Z,61.85
2019-05-07T03:52:25.777Z,61.98
2019-05-07T03:54:57.106Z,61.34
2019-05-07T03:57:33.047Z,60.95
2019-05-07T04:00:05.336Z,60.68
2019-05-07T04:02:36.763Z,60.20
2019-05-07T04:05:08.452Z,60.15
2019-05-07T04:07:42.723Z,60.32
2019-05-07T04:10:14.850Z,60.46
2019-05-07T04:12:46.879Z,60.14
2019-05-07T04:15:19.527Z,60.34
2019-05-07T04:17:56.760Z,60.39
2019-05-07T04:20:28.784Z,60.67
2019-05-07T04:23:00.321Z,61.54
2019-05-07T04:25:36.282Z,60.71
2019-05-07T04:28:09.314Z,61.87
2019-05-07T04:30:43.477Z,62.22
2019-05-07T04:33:15.783Z,61.38
2019-05-07T04:35:53.806Z,61.07
2019-05-07T04:38:24.577Z,61.21
2019-05-07T04:40:55.957Z,61.80
2019-05-07T04:43:27.296Z,61.25
2019-05-07T04:45:58.740Z,61.72
2019-05-07T04:48:30.095Z,61.30
2019-05-07T04:51:03.636Z,61.13
2019-05-07T04:53:35.068Z,60.44
2019-05-07T04:56:06.484Z,60.87
2019-05-07T04:58:37.886Z,61.02
2019-05-07T05:01:13.850Z,61.76
2019-05-07T05:03:44.984Z,61.49
2019-05-07T05:06:16.366Z,60.85
2019-05-07T05:08:48.192Z,62.36
2019-05-07T05:11:23.002Z,62.13
2019-05-07T05:13:53.837Z,62.26
2019-05-07T05:16:26.946Z,61.92
2019-05-07T05:18:59.277Z,61.86
2019-05-07T05:21:32.382Z,61.24
2019-05-07T05:24:05.461Z,60.81
2019-05-07T05:26:37.004Z,59.10
2019-05-07T05:29:08.327Z,58.60
2019-05-07T05:31:42.010Z,57.47
2019-05-07T05:34:13.191Z,57.30
2019-05-07T05:36:44.771Z,57.15
2019-05-07T05:39:16.088Z,57.23
2019-05-07T05:41:49.121Z,57.79
2019-05-07T05:44:25.129Z,58.38
2019-05-07T05:46:56.589Z,58.37
2019-05-07T05:49:27.990Z,58.73
2019-05-07T05:52:02.202Z,58.42
2019-05-07T05:54:42.720Z,58.61
2019-05-07T05:57:15.902Z,58.69
2019-05-07T05:59:55.061Z,58.51
2019-05-07T06:02:44.895Z,57.85
2019-05-07T06:05:34.598Z,57.02
2019-05-07T06:08:08.128Z,56.60
2019-05-07T06:10:51.873Z,56.18
2019-05-07T06:13:25.177Z,56.11
2019-05-07T06:16:03.047Z,56.20
2019-05-07T06:18:39.068Z,56.08
2019-05-07T06:21:28.821Z,56.19
2019-05-07T06:24:11.896Z,57.30
2019-05-07T06:26:43.351Z,57.39
2019-05-07T06:29:14.775Z,57.89
2019-05-07T06:31:47.772Z,58.23
2019-05-07T06:34:19.145Z,58.34
2019-05-07T06:36:54.576Z,58.70
2019-05-07T06:39:27.643Z,57.91
2019-05-07T06:42:17.268Z,58.36
2019-05-07T06:44:51.867Z,57.81
2019-05-07T06:47:23.340Z,57.18
2019-05-07T06:49:54.630Z,56.34
2019-05-07T06:52:26.399Z,54.92
2019-05-07T06:54:57.753Z,54.58
2019-05-07T06:57:32.824Z,54.71
2019-05-07T07:00:12.509Z,54.77
2019-05-07T07:02:52.463Z,54.34
2019-05-07T07:05:32.997Z,54.34
2019-05-07T07:08:13.020Z,53.93
2019-05-07T07:11:02.776Z,53.86
2019-05-07T07:13:34.606Z,53.08
2019-05-07T07:16:06.183Z,53.25
2019-05-07T07:18:49.574Z,52.95
2019-05-07T07:21:12.741Z,52.60
2019-05-07T07:23:44.039Z,52.93
2019-05-07T07:26:15.398Z,51.58
2019-05-07T07:28:46.924Z,52.19
2019-05-07T07:31:25.731Z,51.61
2019-05-07T07:33:56.949Z,50.42
2019-05-07T07:36:31.918Z,49.70
2019-05-07T07:39:04.760Z,49.31
2019-05-07T07:41:38.306Z,48.24
2019-05-07T07:44:09.719Z,48.54
2019-05-07T07:46:42.407Z,47.41
2019-05-07T07:49:15.090Z,47.12
2019-05-07T07:51:46.797Z,46.68
2019-05-07T07:54:19.171Z,46.17
2019-05-07T07:56:55.706Z,45.74
2019-05-07T07:59:43.214Z,46.18
2019-05-07T08:02:16.239Z,46.53
2019-05-07T08:04:47.420Z,46.25
2019-05-07T08:07:18.821Z,46.13
2019-05-07T08:09:52.041Z,47.07
2019-05-07T08:12:23.174Z,48.60
2019-05-07T08:15:11.067Z,49.02
2019-05-07T08:17:29.554Z,48.12
2019-05-07T08:20:02.566Z,47.85
2019-05-07T08:22:35.871Z,47.99
2019-05-07T08:25:07.488Z,47.26
2019-05-07T08:27:41.836Z,46.72
2019-05-07T08:30:14.809Z,46.96
2019-05-07T08:32:47.868Z,47.56
2019-05-07T08:35:23.700Z,46.19
2019-05-07T08:37:55.232Z,44.73
2019-05-07T08:40:26.573Z,44.40
2019-05-07T08:43:03.044Z,43.89
2019-05-07T08:45:54.671Z,43.34
2019-05-07T08:48:27.763Z,43.93
2019-05-07T08:50:58.822Z,43.88
2019-05-07T08:53:32.795Z,43.90
2019-05-07T08:56:04.339Z,42.92
2019-05-07T08:58:35.613Z,43.59
2019-05-07T09:01:07.141Z,43.86
2019-05-07T09:03:42.983Z,42.23
2019-05-07T09:06:17.333Z,42.06
2019-05-07T09:08:48.788Z,41.98
2019-05-07T09:11:20.050Z,41.88
2019-05-07T09:13:52.576Z,42.48
2019-05-07T09:16:24.102Z,42.58
2019-05-07T09:18:55.552Z,42.19
2019-05-07T09:21:50.154Z,41.74
2019-05-07T09:24:22.497Z,42.12
2019-05-07T09:27:12.224Z,42.26
2019-05-07T09:29:45.691Z,41.47
2019-05-07T09:32:22.591Z,41.32
2019-05-07T09:34:54.110Z,41.84
2019-05-07T09:37:30.025Z,41.74
2019-05-07T09:40:02.841Z,40.77
2019-05-07T09:42:34.769Z,40.98
2019-05-07T09:45:08.324Z,41.03
2019-05-07T09:47:41.714Z,41.46
2019-05-07T09:50:13.799Z,41.67
2019-05-07T09:52:59.024Z,41.71
2019-05-07T09:55:36.777Z,41.14
2019-05-07T09:58:08.184Z,40.96
2019-05-07T10:00:42.275Z,40.32
2019-05-07T10:03:13.335Z,39.91
2019-05-07T10:05:45.046Z,39.88
2019-05-07T10:08:16.653Z,39.73
2019-05-07T10:10:51.255Z,39.17
2019-05-07T10:13:29.846Z,39.65
2019-05-07T10:16:03.834Z,39.69
2019-05-07T10:18:37.283Z,38.51
2019-05-07T10:21:10.028Z,38.70
2019-05-07T10:23:46.255Z,39.20
2019-05-07T10:26:22.648Z,38.74
2019-05-07T10:28:55.873Z,38.57
2019-05-07T10:31:27.834Z,38.83
2019-05-07T10:33:59.450Z,38.91
2019-05-07T10:36:34.579Z,38.82
2019-05-07T10:39:15.146Z,38.43
2019-05-07T10:42:01.698Z,37.88
2019-05-07T10:44:52.429Z,38.08
2019-05-07T10:47:27.903Z,38.39
2019-05-07T10:50:07.715Z,38.22
2019-05-07T10:52:43.690Z,38.53
2019-05-07T10:55:15.211Z,38.34
2019-05-07T10:57:47.312Z,38.06
2019-05-07T11:00:23.385Z,38.01
2019-05-07T11:02:54.981Z,37.88
2019-05-07T11:05:26.402Z,38.24
2019-05-07T11:07:57.918Z,37.87
2019-05-07T11:10:32.627Z,38.36
2019-05-07T11:13:06.382Z,38.81
2019-05-07T11:15:38.028Z,38.61
2019-05-07T11:18:16.866Z,38.90
2019-05-07T11:20:53.538Z,39.13
2019-05-07T11:23:24.408Z,39.02
2019-05-07T11:25:56.359Z,39.10
2019-05-07T11:28:27.914Z,39.19
2019-05-07T11:30:59.481Z,39.73
2019-05-07T11:33:32.541Z,39.89
2019-05-07T11:36:04.347Z,40.02
2019-05-07T11:38:35.704Z,39.66
2019-05-07T11:41:07.046Z,39.73
2019-05-07T11:43:48.966Z,39.72
2019-05-07T11:46:27.654Z,39.74
2019-05-07T11:49:17.082Z,40.03
2019-05-07T11:51:51.671Z,40.43
2019-05-07T11:54:23.322Z,40.52
2019-05-07T11:56:55.466Z,40.15
2019-05-07T11:59:27.065Z,40.30
2019-05-07T12:02:00.267Z,40.40
2019-05-07T12:04:32.082Z,40.18
2019-05-07T12:07:03.523Z,40.69
2019-05-07T12:09:35.118Z,40.98
2019-05-07T12:12:06.563Z,41.57
2019-05-07T12:14:38.405Z,41.92
2019-05-07T12:17:11.927Z,42.08
2019-05-07T12:19:43.982Z,42.70
2019-05-07T12:22:17.489Z,42.31
2019-05-07T12:24:48.987Z,42.66
2019-05-07T12:27:20.257Z,42.63
2019-05-07T12:29:54.203Z,42.60
2019-05-07T12:32:46.480Z,42.77
2019-05-07T12:35:19.116Z,42.81
2019-05-07T12:37:50.507Z,42.95
2019-05-07T12:40:22.440Z,42.83
2019-05-07T12:42:53.760Z,43.40
2019-05-07T12:45:25.235Z,43.21
2019-05-07T12:47:56.739Z,43.19
2019-05-07T12:50:29.777Z,42.77
2019-05-07T12:53:02.855Z,43.05
2019-05-07T12:55:48.641Z,42.96
2019-05-07T12:58:21.827Z,43.13
2019-05-07T13:00:55.147Z,42.45
2019-05-07T13:03:28.250Z,41.25
2019-05-07T13:05:59.786Z,40.45
2019-05-07T13:08:32.986Z,40.47
2019-05-07T13:11:04.867Z,40.91
2019-05-07T13:13:37.467Z,40.55
2019-05-07T13:16:08.890Z,40.74
2019-05-07T13:18:42.170Z,40.62
2019-05-07T13:21:13.377Z,40.12
2019-05-07T13:23:44.713Z,40.56
2019-05-07T13:26:16.918Z,40.91
2019-05-07T13:28:48.546Z,40.64
2019-05-07T13:31:22.749Z,40.69
2019-05-07T13:33:56.698Z,41.10
2019-05-07T13:36:28.243Z,41.73
2019-05-07T13:39:08.585Z,42.44
2019-05-07T13:41:44.419Z,42.33
2019-05-07T13:44:33.551Z,42.63
2019-05-07T13:47:24.750Z,43.08
2019-05-07T13:49:57.681Z,43.35
2019-05-07T13:52:29.049Z,43.86
2019-05-07T13:55:00.410Z,44.45
2019-05-07T13:57:32.314Z,44.77
2019-05-07T14:00:05.635Z,44.70
2019-05-07T14:02:38.618Z,44.50
2019-05-07T14:05:14.061Z,44.46
2019-05-07T14:07:44.551Z,44.46
2019-05-07T14:10:16.990Z,45.08
2019-05-07T14:12:49.052Z,45.51
2019-05-07T14:15:20.692Z,45.32
2019-05-07T14:17:56.864Z,45.14
2019-05-07T14:20:33.954Z,45.39
2019-05-07T14:23:05.352Z,45.70
2019-05-07T14:25:36.805Z,45.90
2019-05-07T14:28:08.434Z,46.77
2019-05-07T14:30:42.158Z,47.46
2019-05-07T14:33:17.859Z,48.05
2019-05-07T14:35:59.905Z,48.18
2019-05-07T14:38:32.986Z,48.40
2019-05-07T14:41:04.340Z,49.17
2019-05-07T14:43:41.821Z,49.62
2019-05-07T14:46:15.700Z,49.85
2019-05-07T14:48:49.136Z,49.86
2019-05-07T14:51:22.106Z,50.57
2019-05-07T14:53:53.859Z,50.67
2019-05-07T14:56:26.339Z,51.37
2019-05-07T14:58:57.688Z,51.84
2019-05-07T15:01:29.031Z,52.07
2019-05-07T15:04:02.240Z,52.19
2019-05-07T15:06:33.735Z,52.17
2019-05-07T15:09:06.625Z,52.39
2019-05-07T15:11:39.071Z,52.26
2019-05-07T15:14:12.086Z,52.78
2019-05-07T15:16:44.428Z,53.19
2019-05-07T15:19:15.903Z,53.20
2019-05-07T15:21:48.151Z,53.00
2019-05-07T15:24:21.953Z,53.17
2019-05-07T15:26:55.322Z,53.52
2019-05-07T15:29:26.832Z,52.75
2019-05-07T15:32:00.811Z,51.69
2019-05-07T15:34:32.823Z,51.31
2019-05-07T15:37:04.388Z,51.33
2019-05-07T15:39:35.925Z,51.87
2019-05-07T15:42:07.465Z,51.79
2019-05-07T15:44:38.997Z,51.55
2019-05-07T15:47:12.075Z,51.57
2019-05-07T15:49:43.484Z,51.52
2019-05-07T15:52:16.475Z,51.71
2019-05-07T15:54:52.262Z,52.25
2019-05-07T15:57:25.394Z,52.77
2019-05-07T16:00:04.421Z,53.61
2019-05-07T16:02:37.549Z,54.33
2019-05-07T16:05:09.187Z,54.69
2019-05-07T16:07:41.970Z,54.85
2019-05-07T16:10:15.093Z,54.94
2019-05-07T16:12:47.078Z,56.28
2019-05-07T16:15:18.661Z,57.23
2019-05-07T16:18:02.627Z,57.65
2019-05-07T16:20:33.788Z,57.32
2019-05-07T16:23:14.593Z,57.21
2019-05-07T16:25:42.114Z,57.94
2019-05-07T16:28:13.393Z,58.20
2019-05-07T16:30:44.753Z,58.91
2019-05-07T16:33:16.179Z,59.15
2019-05-07T16:35:47.636Z,59.30
2019-05-07T16:38:19.025Z,59.26
2019-05-07T16:40:52.176Z,59.51
2019-05-07T16:43:23.434Z,59.81
2019-05-07T16:45:54.965Z,60.75
2019-05-07T16:48:26.297Z,61.13
2019-05-07T16:50:57.700Z,61.07
2019-05-07T16:53:30.288Z,61.83
2019-05-07T16:56:02.951Z,62.04
2019-05-07T16:58:42.766Z,61.81
2019-05-07T17:01:16.020Z,62.01
2019-05-07T17:03:49.202Z,62.12
2019-05-07T17:06:22.435Z,62.13
2019-05-07T17:09:08.284Z,61.81
2019-05-07T17:11:40.096Z,61.52
2019-05-07T17:14:12.939Z,61.65
2019-05-07T17:16:44.726Z,61.84
2019-05-07T17:19:16.085Z,61.96
2019-05-07T17:21:52.058Z,62.74
2019-05-07T17:24:23.688Z,63.42
2019-05-07T17:26:56.531Z,63.46
2019-05-07T17:29:27.964Z,63.97
2019-05-07T17:32:01.549Z,64.21
2019-05-07T17:34:32.679Z,64.47
2019-05-07T17:37:04.161Z,64.57
2019-05-07T17:39:35.733Z,64.41
2019-05-07T17:42:07.392Z,64.52
2019-05-07T17:44:38.837Z,64.68
2019-05-07T17:47:12.669Z,64.84
2019-05-07T17:49:43.605Z,64.79
2019-05-07T17:52:14.923Z,64.98
2019-05-07T17:54:46.389Z,65.00
2019-05-07T17:57:17.722Z,65.43
2019-05-07T17:59:49.174Z,65.79
2019-05-07T18:02:29.594Z,66.13
2019-05-07T18:05:02.891Z,66.22
2019-05-07T18:07:36.869Z,66.28
2019-05-07T18:10:08.707Z,66.38
2019-05-07T18:12:42.546Z,66.63
2019-05-07T18:15:14.184Z,66.65
2019-05-07T18:17:47.259Z,66.68
2019-05-07T18:20:18.918Z,66.91
2019-05-07T18:22:52.147Z,66.81
2019-05-07T18:25:23.714Z,66.92
2019-05-07T18:27:55.151Z,67.11
2019-05-07T18:30:26.688Z,66.89
2019-05-07T18:33:14.777Z,67.42
2019-05-07T18:35:47.920Z,67.81
2019-05-07T18:38:19.453Z,67.91
2019-05-07T18:40:52.722Z,68.04
2019-05-07T18:43:26.160Z,68.11
2019-05-07T18:45:57.702Z,68.00
2019-05-07T18:48:29.161Z,67.88
2019-05-07T18:51:02.763Z,67.70
2019-05-07T18:53:34.306Z,67.69
2019-05-07T18:56:05.761Z,67.87
2019-05-07T18:58:37.215Z,67.91
2019-05-07T19:01:13.300Z,68.26
2019-05-07T19:03:44.664Z,68.37
2019-05-07T19:06:16.152Z,69.16
2019-05-07T19:08:48.297Z,68.81
2019-05-07T19:11:19.607Z,68.45
2019-05-07T19:13:52.482Z,68.51
2019-05-07T19:16:24.319Z,68.26
2019-05-07T19:18:56.831Z,68.62
2019-05-07T19:21:28.444Z,68.79
2019-05-07T19:24:02.167Z,68.47
2019-05-07T19:26:33.177Z,68.62
2019-05-07T19:29:05.309Z,68.27
2019-05-07T19:31:37.081Z,68.22
2019-05-07T19:34:08.556Z,68.42
2019-05-07T19:36:42.263Z,68.50
2019-05-07T19:39:13.435Z,68.80
2019-05-07T19:41:44.860Z,69.11
2019-05-07T19:44:16.369Z,69.20
2019-05-07T19:46:47.767Z,69.44
2019-05-07T19:49:19.165Z,69.62
2019-05-07T19:51:52.466Z,70.26
2019-05-07T19:54:25.050Z,70.09
2019-05-07T19:56:56.476Z,70.00
2019-05-07T19:59:28.031Z,70.08
2019-05-07T20:02:02.484Z,69.84
2019-05-07T20:04:35.305Z,69.77
2019-05-07T20:07:06.787Z,69.95
2019-05-07T20:09:39.977Z,69.80
2019-05-07T20:12:11.418Z,69.56
2019-05-07T20:14:43.572Z,69.55
2019-05-07T20:17:14.979Z,69.33
2019-05-07T20:19:46.589Z,69.15
2019-05-07T20:22:18.158Z,69.26
2019-05-07T20:24:49.671Z,69.11
2019-05-07T20:27:23.250Z,69.37
2019-05-07T20:29:55.233Z,69.28
2019-05-07T20:32:26.783Z,69.86
2019-05-07T20:34:58.337Z,70.24
2019-05-07T20:37:32.591Z,69.89
2019-05-07T20:40:07.219Z,69.66
2019-05-07T20:42:38.699Z,69.41
2019-05-07T20:45:12.120Z,69.34
2019-05-07T20:47:45.004Z,69.92
2019-05-07T20:50:16.467Z,70.08
2019-05-07T20:52:48.091Z,69.73
2019-05-07T20:55:33.998Z,69.71
2019-05-07T20:58:05.931Z,69.52
2019-05-07T21:00:37.558Z,70.05
2019-05-07T21:03:23.758Z,70.41
2019-05-07T21:05:54.564Z,70.67
2019-05-07T21:08:27.102Z,70.80
2019-05-07T21:11:03.957Z,71.24
2019-05-07T21:13:36.328Z,70.91
2019-05-07T21:16:07.957Z,71.75
2019-05-07T21:18:42.109Z,72.10
2019-05-07T21:21:14.953Z,72.24
2019-05-07T21:23:47.331Z,71.83
2019-05-07T21:26:18.684Z,72.91
2019-05-07T21:28:52.593Z,72.61
2019-05-07T21:31:23.454Z,72.96
2019-05-07T21:33:54.953Z,73.45
2019-05-07T21:36:26.415Z,73.19
2019-05-07T21:38:57.840Z,73.41
2019-05-07T21:41:29.216Z,73.54
2019-05-07T21:44:00.731Z,74.12
2019-05-07T21:46:33.065Z,74.35
2019-05-07T21:49:04.511Z,73.90
2019-05-07T21:51:35.839Z,74.02
2019-05-07T21:54:24.188Z,73.46
2019-05-07T21:57:01.913Z,72.99
2019-05-07T21:59:35.785Z,72.95
2019-05-07T22:02:09.375Z,73.13
2019-05-07T22:04:42.136Z,72.61
2019-05-07T22:07:13.936Z,72.88
2019-05-07T22:09:45.393Z,72.86
2019-05-07T22:12:16.873Z,72.82
2019-05-07T22:14:48.536Z,72.61
2019-05-07T22:17:21.941Z,72.85
2019-05-07T22:19:53.141Z,72.97
2019-05-07T22:22:24.600Z,73.18
2019-05-07T22:24:55.998Z,73.03
2019-05-07T22:27:29.049Z,72.98
2019-05-07T22:30:02.300Z,72.98
2019-05-07T22:32:43.787Z,72.85
2019-05-07T22:35:17.352Z,72.63
2019-05-07T22:37:51.950Z,72.98
2019-05-07T22:40:24.884Z,73.51
2019-05-07T22:42:57.753Z,74.29
2019-05-07T22:45:32.247Z,74.08
2019-05-07T22:48:03.838Z,73.91
2019-05-07T22:50:35.295Z,73.51
2019-05-07T22:53:06.709Z,73.65
2019-05-07T22:55:38.117Z,73.51
2019-05-07T22:58:13.985Z,73.36
2019-05-07T23:00:45.996Z,73.55
2019-05-07T23:03:18.471Z,72.96
2019-05-07T23:05:52.232Z,72.69
2019-05-07T23:08:23.096Z,72.75
2019-05-07T23:10:54.550Z,72.41
2019-05-07T23:13:25.927Z,73.08
2019-05-07T23:15:57.306Z,73.58
2019-05-07T23:18:28.902Z,73.67
2019-05-07T23:21:00.164Z,73.08
2019-05-07T23:23:32.531Z,73.66
2019-05-07T23:26:04.180Z,74.09
2019-05-07T23:28:35.748Z,73.25
2019-05-07T23:31:07.114Z,72.41
2019-05-07T23:33:38.463Z,71.94
2019-05-07T23:36:12.938Z,71.93
2019-05-07T23:38:44.434Z,71.79
2019-05-07T23:41:22.318Z,72.38
2019-05-07T23:44:12.411Z,71.81
2019-05-07T23:46:44.902Z,71.87
2019-05-07T23:49:17.563Z,71.76
2019-05-07T23:51:48.895Z,71.22
2019-05-07T23:54:22.696Z,71.26
2019-05-07T23:57:05.072Z,70.68
2019-05-07T23:59:27.634Z,70.61
